createdAt,value
2023-02-11T00:01:31.604Z,1.06
2023-02-11T00:04:00.281Z,1.05
2023-02-11T00:06:30.839Z,1.05
2023-02-11T00:08:58.069Z,1.03
2023-02-11T00:11:30.681Z,0.99
2023-02-11T00:14:02.200Z,0.94
2023-02-11T00:16:29.886Z,0.88
2023-02-11T00:18:57.192Z,0.87
2023-02-11T00:21:26.469Z,0.87
2023-02-11T00:23:55.034Z,0.87
2023-02-11T00:26:26.537Z,0.81
2023-02-11T00:28:53.824Z,0.76
2023-02-11T00:31:23.500Z,0.75
2023-02-11T00:33:51.038Z,0.73
2023-02-11T00:36:26.176Z,0.73
2023-02-11T00:38:55.021Z,0.73
2023-02-11T00:41:23.170Z,0.69
2023-02-11T00:43:52.494Z,0.65
2023-02-11T00:46:20.193Z,0.61
2023-02-11T00:48:47.269Z,0.60
2023-02-11T00:51:14.355Z,0.58
2023-02-11T00:53:41.552Z,0.58
2023-02-11T00:56:08.914Z,0.55
2023-02-11T00:58:36.903Z,0.52
2023-02-11T01:01:04.945Z,0.50
2023-02-11T01:03:33.025Z,0.49
2023-02-11T01:06:00.449Z,0.49
2023-02-11T01:08:28.088Z,0.49
2023-02-11T01:11:05.274Z,0.49
2023-02-11T01:13:37.215Z,0.50
2023-02-11T01:16:07.888Z,0.48
2023-02-11T01:18:35.990Z,0.46
2023-02-11T01:21:03.459Z,0.44
2023-02-11T01:23:30.607Z,0.45
2023-02-11T01:25:57.609Z,0.43
2023-02-11T01:28:27.712Z,0.44
2023-02-11T01:30:55.135Z,0.44
2023-02-11T01:33:24.302Z,0.45
2023-02-11T01:35:52.526Z,0.44
2023-02-11T01:38:26.286Z,0.39
2023-02-11T01:41:03.796Z,0.37
2023-02-11T01:43:39.732Z,0.37
2023-02-11T01:46:25.272Z,0.37
2023-02-11T01:49:00.203Z,0.38
2023-02-11T01:51:44.433Z,0.33
2023-02-11T01:54:36.969Z,0.29
2023-02-11T01:57:25.274Z,0.26
2023-02-11T02:00:28.041Z,0.20
2023-02-11T02:03:20.323Z,0.16
2023-02-11T02:06:04.750Z,0.13
2023-02-11T02:08:42.699Z,0.10
2023-02-11T02:11:10.606Z,0.08
2023-02-11T02:13:37.901Z,0.07
2023-02-11T02:16:32.804Z,0.06
2023-02-11T02:19:44.489Z,0.05
2023-02-11T02:22:26.713Z,0.04
2023-02-11T02:25:30.603Z,0.01
2023-02-11T02:28:23.878Z,-0.02
2023-02-11T02:31:12.338Z,-0.02
2023-02-11T02:34:15.459Z,-0.08
2023-02-11T02:36:55.878Z,-0.11
2023-02-11T02:39:30.214Z,-0.12
2023-02-11T02:41:57.761Z,-0.13
2023-02-11T02:44:25.025Z,-0.13
2023-02-11T02:46:52.391Z,-0.13
2023-02-11T02:49:19.414Z,-0.13
2023-02-11T02:52:25.051Z,-0.15
2023-02-11T02:55:06.730Z,-0.19
2023-02-11T02:57:54.137Z,-0.19
2023-02-11T03:00:47.494Z,-0.17
2023-02-11T03:03:44.214Z,-0.21
2023-02-11T03:06:50.247Z,-0.25
2023-02-11T03:09:29.579Z,-0.27
2023-02-11T03:11:56.981Z,-0.26
2023-02-11T03:14:27.169Z,-0.27
2023-02-11T03:16:56.986Z,-0.29
2023-02-11T03:19:40.384Z,-0.31
2023-02-11T03:22:18.938Z,-0.33
2023-02-11T03:24:46.773Z,-0.37
2023-02-11T03:27:39.936Z,-0.41
2023-02-11T03:30:25.136Z,-0.42
2023-02-11T03:32:59.827Z,-0.42
2023-02-11T03:35:39.902Z,-0.43
2023-02-11T03:38:28.106Z,-0.45
2023-02-11T03:40:56.891Z,-0.44
2023-02-11T03:43:45.105Z,-0.45
2023-02-11T03:46:16.348Z,-0.44
2023-02-11T03:48:52.692Z,-0.47
2023-02-11T03:51:22.370Z,-0.48
2023-02-11T03:53:53.220Z,-0.47
2023-02-11T03:56:25.584Z,-0.47
2023-02-11T03:58:53.024Z,-0.48
2023-02-11T04:01:20.835Z,-0.46
2023-02-11T04:03:48.602Z,-0.48
2023-02-11T04:06:16.131Z,-0.51
2023-02-11T04:08:43.471Z,-0.52
2023-02-11T04:11:16.327Z,-0.51
2023-02-11T04:13:43.833Z,-0.52
2023-02-11T04:16:14.491Z,-0.50
2023-02-11T04:18:44.327Z,-0.50
2023-02-11T04:24:34.062Z,-0.53
2023-02-11T04:27:24.843Z,-0.57
2023-02-11T04:30:26.644Z,-0.60
2023-02-11T04:32:59.617Z,-0.63
2023-02-11T04:35:26.746Z,-0.67
2023-02-11T04:37:53.752Z,-0.72
2023-02-11T04:40:20.775Z,-0.76
2023-02-11T04:42:47.934Z,-0.78
2023-02-11T04:49:21.372Z,-0.84
2023-02-11T04:52:12.568Z,-0.85
2023-02-11T04:55:22.579Z,-0.85
2023-02-11T04:58:33.662Z,-0.89
2023-02-11T05:05:41.548Z,-0.94
2023-02-11T05:12:35.543Z,-0.95
2023-02-11T05:16:13.277Z,-0.93
2023-02-11T05:19:10.302Z,-0.93
2023-02-11T05:22:04.341Z,-0.94
2023-02-11T05:24:49.457Z,-0.92
2023-02-11T05:31:07.636Z,-0.93
2023-02-11T05:33:56.822Z,-0.94
2023-02-11T05:39:36.852Z,-0.93
2023-02-11T05:42:17.015Z,-0.96
2023-02-11T05:45:16.168Z,-0.98
2023-02-11T05:48:03.993Z,-1.02
2023-02-11T05:50:36.539Z,-1.03
2023-02-11T05:53:20.885Z,-1.05
2023-02-11T05:56:06.932Z,-1.09
2023-02-11T05:58:46.058Z,-1.12
2023-02-11T06:01:23.127Z,-1.11
2023-02-11T06:04:05.453Z,-1.10
2023-02-11T06:06:54.896Z,-1.09
2023-02-11T06:09:30.790Z,-1.10
2023-02-11T06:12:23.424Z,-1.06
2023-02-11T06:15:20.634Z,-1.02
2023-02-11T06:18:07.275Z,-1.01
2023-02-11T06:20:41.348Z,-0.98
2023-02-11T06:23:22.991Z,-0.94
2023-02-11T06:26:07.495Z,-0.96
2023-02-11T06:28:42.077Z,-0.94
2023-02-11T06:31:23.806Z,-0.91
2023-02-11T06:34:07.985Z,-0.92
2023-02-11T06:36:53.456Z,-0.90
2023-02-11T06:39:32.864Z,-0.94
2023-02-11T06:42:23.086Z,-0.95
2023-02-11T06:45:07.749Z,-0.92
2023-02-11T06:47:56.006Z,-0.91
2023-02-11T06:50:33.316Z,-0.86
2023-02-11T06:53:08.278Z,-0.84
2023-02-11T06:55:51.970Z,-0.82
2023-02-11T06:58:22.798Z,-0.79
2023-02-11T07:00:56.617Z,-0.77
2023-02-11T07:03:27.778Z,-0.74
2023-02-11T07:06:06.721Z,-0.71
2023-02-11T07:08:35.909Z,-0.69
2023-02-11T07:11:11.465Z,-0.69
2023-02-11T07:13:43.753Z,-0.70
2023-02-11T07:16:17.405Z,-0.67
2023-02-11T07:18:51.953Z,-0.67
2023-02-11T07:21:24.450Z,-0.62
2023-02-11T07:23:56.122Z,-0.63
2023-02-11T07:26:28.138Z,-0.60
2023-02-11T07:28:55.726Z,-0.58
2023-02-11T07:31:30.094Z,-0.56
2023-02-11T07:34:04.760Z,-0.52
2023-02-11T07:36:34.859Z,-0.48
2023-02-11T07:39:08.759Z,-0.44
2023-02-11T07:41:41.454Z,-0.46
2023-02-11T07:44:09.382Z,-0.45
2023-02-11T07:46:37.065Z,-0.39
2023-02-11T07:49:16.314Z,-0.41
2023-02-11T07:51:51.760Z,-0.40
2023-02-11T07:54:19.330Z,-0.34
2023-02-11T07:56:55.316Z,-0.33
2023-02-11T07:59:47.021Z,-0.24
2023-02-11T08:02:17.138Z,-0.20
2023-02-11T08:04:56.023Z,-0.20
2023-02-11T08:07:56.731Z,-0.16
2023-02-11T08:10:33.725Z,-0.08
2023-02-11T08:13:07.582Z,-0.07
2023-02-11T08:15:37.076Z,0.00
2023-02-11T08:18:08.746Z,0.03
2023-02-11T08:20:36.058Z,0.10
2023-02-11T08:23:07.436Z,0.15
2023-02-11T08:25:34.994Z,0.23
2023-02-11T08:28:02.218Z,0.31
2023-02-11T08:30:29.334Z,0.32
2023-02-11T08:32:56.705Z,0.46
2023-02-11T08:35:24.056Z,0.51
2023-02-11T08:37:51.267Z,0.59
2023-02-11T08:40:19.619Z,0.69
2023-02-11T08:42:47.440Z,0.76
2023-02-11T08:45:14.755Z,0.83
2023-02-11T08:47:42.143Z,0.90
2023-02-11T08:50:09.498Z,1.00
2023-02-11T08:52:37.342Z,1.05
2023-02-11T08:55:04.879Z,1.13
2023-02-11T08:57:32.718Z,1.15
2023-02-11T08:59:59.926Z,1.23
2023-02-11T09:02:27.351Z,1.31
2023-02-11T09:04:54.820Z,1.38
2023-02-11T09:07:22.103Z,1.44
2023-02-11T09:09:49.114Z,1.49
2023-02-11T09:12:16.216Z,1.59
2023-02-11T09:14:44.243Z,1.62
2023-02-11T09:17:11.539Z,1.74
2023-02-11T09:19:38.772Z,1.80
2023-02-11T09:22:05.900Z,1.89
2023-02-11T09:24:33.066Z,1.89
2023-02-11T09:27:00.303Z,2.09
2023-02-11T09:29:27.318Z,2.18
2023-02-11T09:31:54.520Z,2.26
2023-02-11T09:34:21.733Z,2.39
2023-02-11T09:36:51.149Z,2.40
2023-02-11T09:39:20.589Z,2.40
2023-02-11T09:42:18.428Z,2.55
2023-02-11T09:44:47.056Z,2.64
2023-02-11T09:47:22.848Z,2.70
2023-02-11T09:50:16.550Z,2.81
2023-02-11T09:53:12.407Z,2.96
2023-02-11T09:55:43.549Z,3.01
2023-02-11T09:58:17.855Z,3.09
2023-02-11T10:01:06.985Z,3.13
2023-02-11T10:04:02.494Z,3.24
2023-02-11T10:06:53.630Z,3.36
2023-02-11T10:09:39.369Z,3.46
2023-02-11T10:12:46.324Z,3.59
2023-02-11T10:16:00.393Z,3.64
2023-02-11T10:19:05.480Z,3.75
2023-02-11T10:22:04.593Z,3.88
2023-02-11T10:24:31.944Z,3.94
2023-02-11T10:26:59.373Z,3.99
2023-02-11T10:29:40.884Z,4.05
2023-02-11T10:32:27.366Z,4.12
2023-02-11T10:35:01.180Z,4.15
2023-02-11T10:37:28.980Z,4.29
2023-02-11T10:39:56.563Z,4.33
2023-02-11T10:42:23.864Z,4.37
2023-02-11T10:45:02.061Z,4.47
2023-02-11T10:47:37.630Z,4.58
2023-02-11T10:50:24.623Z,4.66
2023-02-11T10:52:51.719Z,4.63
2023-02-11T10:55:22.201Z,4.68
2023-02-11T10:57:54.061Z,4.78
2023-02-11T11:00:57.445Z,4.83
2023-02-11T11:03:40.029Z,4.92
2023-02-11T11:06:10.112Z,4.95
2023-02-11T11:08:51.694Z,5.00
2023-02-11T11:11:24.924Z,5.05
2023-02-11T11:13:52.686Z,5.14
2023-02-11T11:16:32.415Z,5.24
2023-02-11T11:19:08.711Z,5.32
2023-02-11T11:21:49.968Z,5.37
2023-02-11T11:24:29.527Z,5.41
2023-02-11T11:27:03.118Z,5.44
2023-02-11T11:29:44.143Z,5.55
2023-02-11T11:32:32.429Z,5.68
2023-02-11T11:35:17.845Z,5.79
2023-02-11T11:37:45.879Z,5.93
2023-02-11T11:40:16.097Z,6.00
2023-02-11T11:42:44.119Z,5.97
2023-02-11T11:45:19.916Z,6.14
2023-02-11T11:48:01.863Z,6.32
2023-02-11T11:50:44.601Z,6.33
2023-02-11T11:54:03.823Z,6.54
2023-02-11T11:56:39.437Z,6.65
2023-02-11T11:59:16.657Z,6.83
2023-02-11T12:02:18.452Z,6.97
2023-02-11T12:04:59.450Z,7.02
2023-02-11T12:07:45.620Z,7.08
2023-02-11T12:10:32.177Z,7.06
2023-02-11T12:13:26.475Z,7.05
2023-02-11T12:16:31.790Z,7.07
2023-02-11T12:19:21.119Z,7.07
2023-02-11T12:22:29.250Z,7.07
2023-02-11T12:25:26.654Z,7.11
2023-02-11T12:28:14.143Z,7.18
2023-02-11T12:30:57.383Z,7.22
2023-02-11T12:34:04.316Z,7.23
2023-02-11T12:36:46.617Z,7.30
2023-02-11T12:39:45.543Z,7.37
2023-02-11T12:43:18.740Z,7.44
2023-02-11T12:46:26.065Z,7.46
2023-02-11T12:49:20.280Z,7.45
2023-02-11T12:52:12.143Z,7.44
2023-02-11T12:55:00.834Z,7.38
2023-02-11T12:57:32.517Z,7.36
2023-02-11T13:00:05.433Z,7.29
2023-02-11T13:03:09.554Z,7.30
2023-02-11T13:05:52.231Z,7.35
2023-02-11T13:08:39.982Z,7.43
2023-02-11T13:11:18.998Z,7.50
2023-02-11T13:13:46.307Z,7.62
2023-02-11T13:16:39.672Z,7.78
2023-02-11T13:19:28.912Z,7.83
2023-02-11T13:22:32.448Z,7.96
2023-02-11T13:25:36.250Z,8.09
2023-02-11T13:28:36.356Z,8.27
2023-02-11T13:31:07.164Z,8.32
2023-02-11T13:33:43.936Z,8.40
2023-02-11T13:36:14.971Z,8.54
2023-02-11T13:39:01.441Z,8.65
2023-02-11T13:41:41.124Z,8.73
2023-02-11T13:44:11.143Z,8.78
2023-02-11T13:47:07.845Z,8.80
2023-02-11T13:49:43.153Z,8.80
2023-02-11T13:52:38.308Z,8.91
2023-02-11T13:55:22.328Z,8.95
2023-02-11T13:58:27.724Z,8.95
2023-02-11T14:00:55.562Z,9.00
2023-02-11T14:03:48.057Z,9.06
2023-02-11T14:06:46.660Z,9.09
2023-02-11T14:09:13.601Z,9.12
2023-02-11T14:11:43.350Z,9.20
2023-02-11T14:14:16.081Z,9.26
2023-02-11T14:17:07.352Z,9.20
2023-02-11T14:19:39.668Z,9.26
2023-02-11T14:22:16.731Z,9.21
2023-02-11T14:24:51.592Z,9.26
2023-02-11T14:27:57.286Z,9.28
2023-02-11T14:30:34.461Z,9.35
2023-02-11T14:33:52.772Z,9.32
2023-02-11T14:36:53.772Z,9.30
2023-02-11T14:39:46.571Z,9.33
2023-02-11T14:42:20.004Z,9.39
2023-02-11T14:44:50.371Z,9.41
2023-02-11T14:47:21.666Z,9.40
2023-02-11T14:49:49.782Z,9.38
2023-02-11T14:52:28.241Z,9.42
2023-02-11T14:55:39.838Z,9.36
2023-02-11T14:58:31.551Z,9.30
2023-02-11T15:01:28.964Z,9.27
2023-02-11T15:03:57.031Z,9.18
2023-02-11T15:06:28.222Z,9.15
2023-02-11T15:09:01.209Z,9.08
2023-02-11T15:11:35.190Z,9.04
2023-02-11T15:14:11.578Z,9.02
2023-02-11T15:16:44.913Z,8.98
2023-02-11T15:19:25.880Z,8.96
2023-02-11T15:21:54.247Z,8.96
2023-02-11T15:24:28.706Z,8.94
2023-02-11T15:27:00.533Z,8.87
2023-02-11T15:29:36.404Z,8.84
2023-02-11T15:32:15.651Z,8.80
2023-02-11T15:34:45.167Z,8.83
2023-02-11T15:37:27.739Z,8.81
2023-02-11T15:39:56.418Z,8.81
2023-02-11T15:42:40.847Z,8.78
2023-02-11T15:45:14.336Z,8.71
2023-02-11T15:47:50.124Z,8.70
2023-02-11T15:50:26.737Z,8.67
2023-02-11T15:52:56.813Z,8.66
2023-02-11T15:55:25.602Z,8.63
2023-02-11T15:58:01.401Z,8.61
2023-02-11T16:00:37.565Z,8.59
2023-02-11T16:03:05.262Z,8.51
2023-02-11T16:05:37.947Z,8.52
2023-02-11T16:08:35.554Z,8.50
2023-02-11T16:11:09.120Z,8.47
2023-02-11T16:13:47.562Z,8.41
2023-02-11T16:16:26.209Z,8.38
2023-02-11T16:19:06.277Z,8.34
2023-02-11T16:21:39.463Z,8.30
2023-02-11T16:24:25.011Z,8.26
2023-02-11T16:26:58.673Z,8.22
2023-02-11T16:29:29.427Z,8.15
2023-02-11T16:32:18.075Z,8.10
2023-02-11T16:34:46.652Z,8.01
2023-02-11T16:37:13.787Z,7.94
2023-02-11T16:39:41.052Z,7.88
2023-02-11T16:42:08.570Z,7.80
2023-02-11T16:44:36.014Z,7.72
2023-02-11T16:47:06.103Z,7.66
2023-02-11T16:49:38.289Z,7.61
2023-02-11T16:52:13.962Z,7.52
2023-02-11T16:54:41.039Z,7.40
2023-02-11T16:57:18.459Z,7.32
2023-02-11T16:59:46.773Z,7.22
2023-02-11T17:02:26.443Z,7.14
2023-02-11T17:04:56.012Z,7.06
2023-02-11T17:07:23.305Z,6.99
2023-02-11T17:09:52.229Z,6.94
2023-02-11T17:12:20.835Z,6.87
2023-02-11T17:14:48.200Z,6.79
2023-02-11T17:17:16.323Z,6.73
2023-02-11T17:19:47.958Z,6.66
2023-02-11T17:22:15.009Z,6.59
2023-02-11T17:24:42.052Z,6.55
2023-02-11T17:27:11.806Z,6.48
2023-02-11T17:29:39.007Z,6.42
2023-02-11T17:32:06.330Z,6.36
2023-02-11T17:34:33.576Z,6.31
2023-02-11T17:37:03.109Z,6.25
2023-02-11T17:39:30.082Z,6.21
2023-02-11T17:41:57.106Z,6.18
2023-02-11T17:44:24.093Z,6.11
2023-02-11T17:46:51.127Z,6.06
2023-02-11T17:49:18.149Z,6.01
2023-02-11T17:51:45.512Z,5.96
2023-02-11T17:54:19.426Z,5.93
2023-02-11T17:56:50.542Z,5.88
2023-02-11T17:59:18.304Z,5.85
2023-02-11T18:01:45.853Z,5.82
2023-02-11T18:04:16.935Z,5.77
2023-02-11T18:06:44.759Z,5.72
2023-02-11T18:09:12.115Z,5.69
2023-02-11T18:11:40.274Z,5.63
2023-02-11T18:14:08.509Z,5.61
2023-02-11T18:16:38.979Z,5.58
2023-02-11T18:19:07.843Z,5.54
2023-02-11T18:21:35.452Z,5.52
2023-02-11T18:24:06.690Z,5.49
2023-02-11T18:26:35.128Z,5.46
2023-02-11T18:29:03.894Z,5.44
2023-02-11T18:31:31.486Z,5.43
2023-02-11T18:33:58.797Z,5.39
2023-02-11T18:36:25.877Z,5.37
2023-02-11T18:38:54.232Z,5.34
2023-02-11T18:41:21.612Z,5.30
2023-02-11T18:43:48.946Z,5.26
2023-02-11T18:46:16.797Z,5.24
2023-02-11T18:48:45.108Z,5.21
2023-02-11T18:51:20.752Z,5.19
2023-02-11T18:53:47.848Z,5.15
2023-02-11T18:56:20.388Z,5.13
2023-02-11T18:58:48.599Z,5.08
2023-02-11T19:01:23.010Z,5.04
2023-02-11T19:03:51.142Z,5.02
2023-02-11T19:06:26.877Z,5.01
2023-02-11T19:08:59.000Z,5.01
2023-02-11T19:11:46.538Z,4.99
2023-02-11T19:14:21.386Z,4.96
2023-02-11T19:16:51.409Z,4.93
2023-02-11T19:19:20.103Z,4.89
2023-02-11T19:21:47.585Z,4.87
2023-02-11T19:24:19.014Z,4.84
2023-02-11T19:26:48.408Z,4.81
2023-02-11T19:29:16.514Z,4.79
2023-02-11T19:31:44.291Z,4.74
2023-02-11T19:34:14.229Z,4.71
2023-02-11T19:36:41.942Z,4.67
2023-02-11T19:39:19.201Z,4.65
2023-02-11T19:41:46.525Z,4.63
2023-02-11T19:44:14.874Z,4.62
2023-02-11T19:46:42.272Z,4.60
2023-02-11T19:49:13.857Z,4.55
2023-02-11T19:51:41.031Z,4.55
2023-02-11T19:54:08.352Z,4.53
2023-02-11T19:56:37.891Z,4.51
2023-02-11T19:59:08.856Z,4.49
2023-02-11T20:01:38.998Z,4.46
2023-02-11T20:04:08.313Z,4.43
2023-02-11T20:06:35.698Z,4.41
2023-02-11T20:09:07.737Z,4.39
2023-02-11T20:11:37.002Z,4.37
2023-02-11T20:14:05.165Z,4.36
2023-02-11T20:16:47.569Z,4.34
2023-02-11T20:19:21.570Z,4.31
2023-02-11T20:21:53.131Z,4.28
2023-02-11T20:24:20.986Z,4.25
2023-02-11T20:26:49.305Z,4.24
2023-02-11T20:29:18.220Z,4.21
2023-02-11T20:31:45.891Z,4.14
2023-02-11T20:34:13.537Z,4.10
2023-02-11T20:36:40.910Z,4.04
2023-02-11T20:39:08.743Z,4.00
2023-02-11T20:41:40.704Z,3.96
2023-02-11T20:44:10.715Z,3.90
2023-02-11T20:46:41.460Z,3.87
2023-02-11T20:49:13.468Z,3.85
2023-02-11T20:51:41.172Z,3.83
2023-02-11T20:54:14.203Z,3.81
2023-02-11T20:56:41.647Z,3.74
2023-02-11T20:59:09.306Z,3.70
2023-02-11T21:01:44.175Z,3.66
2023-02-11T21:04:18.282Z,3.64
2023-02-11T21:06:47.711Z,3.63
2023-02-11T21:09:19.947Z,3.61
2023-02-11T21:11:48.295Z,3.59
2023-02-11T21:14:15.478Z,3.56
2023-02-11T21:16:42.624Z,3.54
2023-02-11T21:19:10.345Z,3.54
2023-02-11T21:21:39.242Z,3.54
2023-02-11T21:24:07.793Z,3.53
2023-02-11T21:26:35.748Z,3.49
2023-02-11T21:29:05.234Z,3.47
2023-02-11T21:31:34.500Z,3.46
2023-02-11T21:34:02.107Z,3.45
2023-02-11T21:36:30.515Z,3.43
2023-02-11T21:38:58.359Z,3.41
2023-02-11T21:41:26.988Z,3.40
2023-02-11T21:43:54.115Z,3.38
2023-02-11T21:46:22.473Z,3.38
2023-02-11T21:48:49.837Z,3.35
2023-02-11T21:51:23.618Z,3.32
2023-02-11T21:53:59.756Z,3.30
2023-02-11T21:56:28.392Z,3.27
2023-02-11T21:58:58.750Z,3.24
2023-02-11T22:01:33.135Z,3.22
2023-02-11T22:04:00.400Z,3.21
2023-02-11T22:06:31.198Z,3.19
2023-02-11T22:09:02.451Z,3.16
2023-02-11T22:11:29.568Z,3.14
2023-02-11T22:13:57.909Z,3.12
2023-02-11T22:16:26.619Z,3.10
2023-02-11T22:18:54.111Z,3.07
2023-02-11T22:21:23.040Z,3.04
2023-02-11T22:23:51.607Z,3.02
2023-02-11T22:26:22.517Z,3.00
2023-02-11T22:28:51.677Z,3.00
2023-02-11T22:31:26.599Z,2.94
2023-02-11T22:33:54.204Z,2.92
2023-02-11T22:36:25.334Z,2.91
2023-02-11T22:38:53.446Z,2.92
2023-02-11T22:41:21.458Z,2.92
2023-02-11T22:43:48.953Z,2.88
2023-02-11T22:46:18.957Z,2.85
2023-02-11T22:48:47.149Z,2.82
2023-02-11T22:51:21.159Z,2.81
2023-02-11T22:54:05.663Z,2.78
2023-02-11T22:56:34.747Z,2.78
2023-02-11T22:59:05.864Z,2.76
2023-02-11T23:01:33.946Z,2.75
2023-02-11T23:04:04.707Z,2.71
2023-02-11T23:06:32.356Z,2.70
2023-02-11T23:08:59.596Z,2.69
2023-02-11T23:11:30.580Z,2.66
2023-02-11T23:13:58.558Z,2.64
2023-02-11T23:16:31.268Z,2.62
2023-02-11T23:19:07.906Z,2.60
2023-02-11T23:21:38.344Z,2.56
2023-02-11T23:24:14.732Z,2.54
2023-02-11T23:26:43.716Z,2.52
2023-02-11T23:29:11.166Z,2.50
2023-02-11T23:31:43.464Z,2.46
2023-02-11T23:34:11.330Z,2.42
2023-02-11T23:36:38.625Z,2.42
2023-02-11T23:39:06.167Z,2.39
2023-02-11T23:41:33.278Z,2.38
2023-02-11T23:44:00.465Z,2.37
2023-02-11T23:46:28.113Z,2.37
2023-02-11T23:48:55.424Z,2.34
2023-02-11T23:51:23.801Z,2.31
2023-02-11T23:53:52.642Z,2.31
2023-02-11T23:56:23.932Z,2.30
2023-02-11T23:58:54.396Z,2.29
